createdAt,value
2017-12-26T00:01:30.611Z,92.60
2017-12-26T00:03:58.091Z,92.60
2017-12-26T00:06:29.870Z,92.60
2017-12-26T00:08:57.375Z,92.50
2017-12-26T00:11:24.866Z,92.60
2017-12-26T00:13:52.388Z,92.60
2017-12-26T00:16:19.887Z,92.60
2017-12-26T00:18:47.365Z,92.60
2017-12-26T00:21:15.754Z,92.80
2017-12-26T00:23:44.013Z,92.80
2017-12-26T00:26:11.490Z,92.90
2017-12-26T00:28:39.861Z,93.00
2017-12-26T00:31:07.343Z,93.00
2017-12-26T00:33:34.856Z,93.10
2017-12-26T00:36:02.340Z,93.20
2017-12-26T00:38:30.592Z,93.40
2017-12-26T00:40:58.097Z,93.70
2017-12-26T00:43:25.595Z,93.30
2017-12-26T00:45:53.914Z,93.30
2017-12-26T00:48:22.156Z,93.30
2017-12-26T00:50:49.755Z,93.30
2017-12-26T00:53:17.255Z,93.30
2017-12-26T00:55:44.745Z,93.40
2017-12-26T00:58:12.225Z,93.20
2017-12-26T01:00:39.724Z,93.20
2017-12-26T01:03:07.292Z,93.20
2017-12-26T01:05:34.795Z,93.10
2017-12-26T01:08:02.285Z,93.20
2017-12-26T01:10:29.817Z,93.30
2017-12-26T01:12:58.068Z,93.10
2017-12-26T01:15:25.543Z,93.10
2017-12-26T01:17:53.792Z,93.20
2017-12-26T01:20:24.472Z,93.50
2017-12-26T01:22:52.146Z,93.10
2017-12-26T01:25:19.609Z,93.10
2017-12-26T01:27:47.096Z,93.00
2017-12-26T01:30:14.583Z,93.00
2017-12-26T01:32:42.828Z,93.10
2017-12-26T01:35:10.323Z,93.10
2017-12-26T01:37:38.618Z,93.00
2017-12-26T01:40:06.141Z,92.90
2017-12-26T01:42:33.609Z,92.70
2017-12-26T01:45:01.986Z,92.50
2017-12-26T01:47:29.500Z,92.60
2017-12-26T01:49:56.985Z,92.50
2017-12-26T01:52:24.472Z,92.40
2017-12-26T01:54:52.724Z,92.20
2017-12-26T01:57:20.210Z,92.30
2017-12-26T01:59:48.488Z,92.30
2017-12-26T02:02:15.975Z,92.30
2017-12-26T02:04:43.453Z,92.20
2017-12-26T02:07:10.936Z,92.20
2017-12-26T02:09:38.426Z,92.20
2017-12-26T02:12:05.907Z,92.10
2017-12-26T02:14:33.392Z,92.20
2017-12-26T02:17:00.856Z,92.20
2017-12-26T02:19:28.343Z,92.20
2017-12-26T02:21:55.827Z,92.30
2017-12-26T02:24:23.304Z,92.40
2017-12-26T02:26:50.810Z,92.40
2017-12-26T02:29:18.296Z,92.40
2017-12-26T02:31:45.804Z,92.40
2017-12-26T02:34:13.268Z,92.40
2017-12-26T02:36:40.729Z,92.50
2017-12-26T02:39:08.978Z,92.70
2017-12-26T02:41:36.452Z,92.70
2017-12-26T02:44:03.941Z,92.80
2017-12-26T02:46:32.185Z,93.00
2017-12-26T02:49:00.470Z,93.10
2017-12-26T02:51:28.026Z,93.10
2017-12-26T02:53:55.478Z,93.10
2017-12-26T02:56:22.948Z,93.00
2017-12-26T02:58:50.419Z,92.90
2017-12-26T03:01:18.687Z,92.90
2017-12-26T03:03:46.181Z,92.80
2017-12-26T03:06:13.658Z,92.80
2017-12-26T03:11:08.839Z,92.60
2017-12-26T03:13:36.313Z,92.70
2017-12-26T03:16:03.798Z,92.70
2017-12-26T03:18:31.343Z,92.70
2017-12-26T03:20:58.827Z,92.70
2017-12-26T03:23:26.364Z,92.70
2017-12-26T03:25:53.832Z,92.70
2017-12-26T03:28:21.351Z,92.70
2017-12-26T03:30:48.842Z,92.60
2017-12-26T03:33:16.332Z,92.70
2017-12-26T03:35:44.577Z,92.50
2017-12-26T03:38:12.058Z,92.70
2017-12-26T03:40:39.545Z,92.80
2017-12-26T03:43:07.783Z,92.90
2017-12-26T03:45:35.248Z,92.90
2017-12-26T03:48:03.665Z,93.00
2017-12-26T03:50:31.294Z,92.80
2017-12-26T03:52:59.911Z,92.70
2017-12-26T03:55:27.391Z,92.70
2017-12-26T03:57:54.882Z,92.80
2017-12-26T04:00:22.435Z,92.80
2017-12-26T04:02:49.935Z,92.70
2017-12-26T04:05:17.427Z,92.80
2017-12-26T04:07:44.919Z,92.80
2017-12-26T04:10:12.387Z,93.20
2017-12-26T04:12:40.655Z,92.90
2017-12-26T04:15:08.145Z,92.90
2017-12-26T04:17:35.638Z,92.90
2017-12-26T04:20:03.119Z,92.80
2017-12-26T04:22:30.589Z,92.80
2017-12-26T04:24:58.067Z,92.70
2017-12-26T04:27:26.300Z,92.70
2017-12-26T04:29:53.812Z,92.70
2017-12-26T04:32:21.277Z,92.70
2017-12-26T04:34:48.776Z,92.60
2017-12-26T04:37:16.260Z,92.60
2017-12-26T04:39:43.735Z,92.70
2017-12-26T04:42:11.276Z,92.70
2017-12-26T04:44:39.512Z,92.70
2017-12-26T04:47:06.973Z,92.70
2017-12-26T04:49:34.473Z,92.70
2017-12-26T04:52:02.705Z,92.80
2017-12-26T04:54:30.196Z,92.80
2017-12-26T04:56:58.454Z,92.90
2017-12-26T04:59:25.928Z,92.90
2017-12-26T05:01:54.177Z,93.00
2017-12-26T05:04:21.680Z,92.90
2017-12-26T05:06:49.928Z,92.90
2017-12-26T05:09:17.411Z,93.00
2017-12-26T05:11:45.635Z,93.00
2017-12-26T05:14:13.112Z,92.90
2017-12-26T05:16:40.589Z,92.90
2017-12-26T05:19:08.071Z,92.80
2017-12-26T05:21:35.567Z,92.80
2017-12-26T05:24:03.099Z,92.80
2017-12-26T05:26:30.560Z,92.80
2017-12-26T05:28:58.025Z,92.70
2017-12-26T05:31:30.118Z,92.70
2017-12-26T05:33:58.358Z,92.90
2017-12-26T05:36:25.862Z,92.80
2017-12-26T05:38:53.332Z,92.80
2017-12-26T05:41:21.578Z,92.80
2017-12-26T05:43:49.426Z,92.80
2017-12-26T05:46:16.881Z,92.80
2017-12-26T05:48:44.356Z,92.80
2017-12-26T05:51:12.601Z,92.90
2017-12-26T05:53:40.098Z,92.80
2017-12-26T05:56:07.578Z,92.80
2017-12-26T05:58:35.814Z,92.80
2017-12-26T06:01:03.327Z,92.80
2017-12-26T06:03:31.575Z,92.90
2017-12-26T06:05:59.087Z,92.90
2017-12-26T06:08:26.575Z,92.80
2017-12-26T06:10:54.049Z,92.80
2017-12-26T06:13:21.533Z,92.80
2017-12-26T06:15:49.020Z,92.80
2017-12-26T06:18:17.452Z,92.70
2017-12-26T06:20:45.200Z,92.70
2017-12-26T06:23:12.665Z,92.50
2017-12-26T06:25:40.149Z,92.60
2017-12-26T06:28:08.403Z,92.70
2017-12-26T06:30:35.888Z,92.70
2017-12-26T06:33:03.378Z,92.70
2017-12-26T06:35:30.852Z,92.70
2017-12-26T06:37:58.313Z,92.60
2017-12-26T06:40:25.819Z,92.50
2017-12-26T06:42:53.284Z,92.50
2017-12-26T06:45:20.758Z,92.50
2017-12-26T06:47:48.267Z,92.40
2017-12-26T06:50:16.721Z,92.40
2017-12-26T06:52:44.194Z,92.40
2017-12-26T06:55:11.676Z,92.20
2017-12-26T06:57:39.915Z,92.20
2017-12-26T07:00:07.376Z,92.10
2017-12-26T07:02:35.612Z,91.90
2017-12-26T07:05:03.120Z,91.90
2017-12-26T07:07:30.573Z,91.70
2017-12-26T07:09:58.045Z,91.50
2017-12-26T07:12:26.299Z,91.40
2017-12-26T07:14:53.766Z,91.40
2017-12-26T07:17:21.228Z,91.40
2017-12-26T07:19:49.464Z,91.20
2017-12-26T07:22:22.635Z,91.60
2017-12-26T07:24:50.096Z,91.10
2017-12-26T07:27:17.583Z,91.10
2017-12-26T07:29:45.102Z,90.90
2017-12-26T07:32:12.621Z,90.90
2017-12-26T07:34:40.113Z,91.00
2017-12-26T07:37:07.594Z,90.90
2017-12-26T07:39:35.063Z,90.90
2017-12-26T07:42:02.508Z,90.90
2017-12-26T07:44:29.960Z,91.10
2017-12-26T07:46:57.437Z,91.30
2017-12-26T07:49:24.895Z,91.50
2017-12-26T07:51:52.398Z,91.80
2017-12-26T07:54:20.628Z,92.50
2017-12-26T07:56:48.084Z,92.50
2017-12-26T07:59:15.551Z,92.80
2017-12-26T08:01:42.999Z,92.90
2017-12-26T08:04:10.469Z,92.90
2017-12-26T08:06:37.950Z,92.90
2017-12-26T08:09:06.176Z,93.00
2017-12-26T08:11:33.702Z,92.90
2017-12-26T08:14:01.325Z,93.00
2017-12-26T08:16:29.304Z,93.00
2017-12-26T08:18:56.972Z,93.00
2017-12-26T08:21:25.484Z,93.10
2017-12-26T08:23:53.189Z,93.20
2017-12-26T08:26:20.878Z,93.30
2017-12-26T08:28:48.390Z,93.50
2017-12-26T08:31:16.657Z,92.90
2017-12-26T08:33:44.224Z,92.80
2017-12-26T08:36:11.769Z,92.70
2017-12-26T08:38:39.249Z,92.70
2017-12-26T08:41:06.849Z,92.50
2017-12-26T08:43:34.348Z,92.40
2017-12-26T08:46:01.881Z,92.60
2017-12-26T08:48:29.480Z,92.50
2017-12-26T08:50:57.084Z,92.40
2017-12-26T08:53:24.584Z,92.20
2017-12-26T08:55:52.116Z,92.10
2017-12-26T08:58:19.680Z,92.00
2017-12-26T09:00:47.967Z,91.60
2017-12-26T09:03:15.441Z,91.60
2017-12-26T09:05:43.005Z,91.70
2017-12-26T09:08:10.565Z,91.80
2017-12-26T09:10:38.148Z,91.70
2017-12-26T09:13:05.929Z,91.70
2017-12-26T09:15:33.461Z,91.90
2017-12-26T09:18:01.029Z,91.90
2017-12-26T09:20:28.589Z,92.00
2017-12-26T09:22:56.098Z,92.20
2017-12-26T09:25:24.369Z,92.60
2017-12-26T09:27:51.940Z,92.60
2017-12-26T09:30:20.240Z,92.40
2017-12-26T09:32:48.484Z,92.20
2017-12-26T09:35:16.129Z,92.20
2017-12-26T09:37:43.647Z,91.90
2017-12-26T09:40:11.275Z,92.00
2017-12-26T09:42:38.794Z,92.10
2017-12-26T09:45:06.365Z,92.20
2017-12-26T09:47:34.943Z,92.20
2017-12-26T09:50:02.523Z,92.40
2017-12-26T09:52:30.134Z,92.80
2017-12-26T09:54:57.647Z,93.10
2017-12-26T09:57:25.236Z,93.10
2017-12-26T09:59:53.487Z,93.90
2017-12-26T10:02:20.984Z,93.50
2017-12-26T10:04:48.628Z,93.60
2017-12-26T10:07:16.220Z,93.70
2017-12-26T10:09:43.764Z,93.80
2017-12-26T10:12:11.326Z,93.70
2017-12-26T10:14:38.926Z,93.80
2017-12-26T10:17:07.260Z,93.60
2017-12-26T10:19:34.904Z,93.60
2017-12-26T10:22:02.475Z,93.30
2017-12-26T10:24:30.057Z,93.20
2017-12-26T10:26:57.677Z,93.30
2017-12-26T10:29:25.547Z,93.50
2017-12-26T10:31:53.184Z,93.50
2017-12-26T10:34:21.500Z,93.90
2017-12-26T10:36:49.816Z,93.90
2017-12-26T10:39:17.421Z,94.20
2017-12-26T10:41:45.868Z,93.60
2017-12-26T10:44:13.357Z,93.50
2017-12-26T10:46:41.002Z,93.80
2017-12-26T10:49:09.293Z,93.40
2017-12-26T10:51:36.885Z,93.40
2017-12-26T10:54:04.628Z,93.70
2017-12-26T10:56:32.271Z,93.30
2017-12-26T10:59:00.536Z,93.80
2017-12-26T11:01:28.804Z,93.70
2017-12-26T11:03:57.078Z,93.80
2017-12-26T11:06:25.362Z,93.80
2017-12-26T11:08:53.636Z,93.70
2017-12-26T11:11:21.892Z,93.30
2017-12-26T11:13:49.401Z,93.30
2017-12-26T11:16:16.888Z,93.40
2017-12-26T11:18:44.397Z,93.50
2017-12-26T11:21:11.894Z,93.30
2017-12-26T11:23:39.390Z,93.60
2017-12-26T11:26:06.902Z,93.30
2017-12-26T11:28:34.422Z,93.20
2017-12-26T11:31:02.651Z,93.20
2017-12-26T11:33:30.263Z,93.20
2017-12-26T11:35:57.760Z,93.00
2017-12-26T11:38:25.288Z,92.90
2017-12-26T11:40:52.785Z,92.90
2017-12-26T11:43:20.319Z,92.80
2017-12-26T11:45:48.812Z,92.20
2017-12-26T11:48:16.356Z,92.20
2017-12-26T11:50:46.413Z,92.30
2017-12-26T11:53:13.925Z,92.20
2017-12-26T11:55:41.432Z,92.50
2017-12-26T11:58:08.918Z,92.70
2017-12-26T12:00:36.402Z,92.20
2017-12-26T12:03:03.893Z,91.10
2017-12-26T12:05:31.393Z,91.40
2017-12-26T12:07:59.635Z,91.60
2017-12-26T12:10:27.141Z,91.50
2017-12-26T12:12:55.392Z,92.40
2017-12-26T12:15:22.914Z,92.40
2017-12-26T12:17:50.414Z,91.40
2017-12-26T12:20:18.682Z,92.20
2017-12-26T12:22:46.163Z,92.10
2017-12-26T12:25:13.646Z,92.40
2017-12-26T12:27:42.042Z,92.30
2017-12-26T12:30:10.315Z,91.80
2017-12-26T12:32:37.838Z,91.80
2017-12-26T12:35:05.319Z,91.70
2017-12-26T12:37:32.822Z,91.60
2017-12-26T12:40:00.348Z,91.40
2017-12-26T12:42:27.844Z,90.80
2017-12-26T12:44:55.366Z,90.60
2017-12-26T12:47:22.872Z,90.30
2017-12-26T12:49:50.365Z,90.20
2017-12-26T12:52:17.960Z,90.40
2017-12-26T12:54:45.628Z,90.30
2017-12-26T12:57:13.137Z,89.10
2017-12-26T12:59:40.611Z,88.80
2017-12-26T13:02:08.105Z,90.00
2017-12-26T13:04:35.638Z,90.40
2017-12-26T13:07:03.130Z,90.20
2017-12-26T13:09:30.668Z,89.30
2017-12-26T13:11:58.139Z,89.30
2017-12-26T13:14:25.664Z,89.00
2017-12-26T13:16:53.136Z,88.60
2017-12-26T13:19:20.616Z,88.60
2017-12-26T13:21:48.141Z,88.40
2017-12-26T13:24:15.644Z,88.40
2017-12-26T13:26:43.915Z,89.20
2017-12-26T13:29:12.186Z,88.40
2017-12-26T13:31:39.699Z,88.30
2017-12-26T13:34:07.177Z,88.20
2017-12-26T13:36:34.644Z,88.30
2017-12-26T13:39:02.124Z,88.70
2017-12-26T13:41:29.592Z,87.90
2017-12-26T13:43:57.085Z,86.90
2017-12-26T13:46:24.579Z,87.00
2017-12-26T13:48:52.051Z,86.30
2017-12-26T13:51:20.285Z,86.60
2017-12-26T13:53:47.987Z,86.50
2017-12-26T13:56:15.874Z,87.70
2017-12-26T13:58:43.364Z,87.30
2017-12-26T14:01:10.973Z,86.50
2017-12-26T14:03:39.269Z,86.70
2017-12-26T14:06:06.897Z,86.50
2017-12-26T14:08:35.648Z,87.50
2017-12-26T14:11:03.625Z,87.30
2017-12-26T14:13:31.211Z,87.60
2017-12-26T14:15:59.133Z,87.00
2017-12-26T14:18:26.681Z,86.80
2017-12-26T14:20:54.955Z,86.70
2017-12-26T14:23:22.439Z,86.60
2017-12-26T14:25:50.714Z,86.10
2017-12-26T14:28:18.522Z,86.10
2017-12-26T14:30:46.155Z,86.50
2017-12-26T14:33:13.716Z,86.40
2017-12-26T14:35:41.528Z,86.00
2017-12-26T14:38:10.251Z,86.40
2017-12-26T14:40:38.096Z,86.30
2017-12-26T14:43:05.891Z,85.90
2017-12-26T14:45:33.709Z,85.70
2017-12-26T14:48:01.751Z,86.70
2017-12-26T14:50:29.422Z,86.80
2017-12-26T14:52:57.128Z,87.30
2017-12-26T14:55:24.942Z,88.10
2017-12-26T14:57:52.899Z,88.40
2017-12-26T15:00:20.537Z,88.00
2017-12-26T15:02:48.375Z,87.70
2017-12-26T15:05:16.134Z,88.10
2017-12-26T15:07:44.606Z,87.20
2017-12-26T15:10:12.177Z,87.20
2017-12-26T15:12:40.505Z,87.90
2017-12-26T15:15:08.028Z,87.90
2017-12-26T15:17:36.488Z,87.90
2017-12-26T15:20:04.210Z,87.90
2017-12-26T15:22:34.419Z,87.90
2017-12-26T15:25:02.307Z,87.40
2017-12-26T15:27:30.037Z,87.90
2017-12-26T15:29:58.041Z,87.90
2017-12-26T15:32:25.803Z,87.90
2017-12-26T15:34:53.363Z,87.60
2017-12-26T15:37:22.133Z,88.30
2017-12-26T15:39:50.153Z,89.90
2017-12-26T15:42:18.984Z,90.60
2017-12-26T15:44:47.442Z,91.00
2017-12-26T15:47:15.225Z,90.70
2017-12-26T15:49:43.733Z,91.10
2017-12-26T15:52:11.710Z,91.10
2017-12-26T15:54:39.335Z,91.30
2017-12-26T15:57:06.873Z,91.20
2017-12-26T15:59:35.788Z,91.20
2017-12-26T16:02:03.523Z,91.10
2017-12-26T16:04:31.149Z,91.30
2017-12-26T16:06:58.756Z,91.50
2017-12-26T16:09:26.691Z,91.40
2017-12-26T16:11:54.444Z,91.40
2017-12-26T16:14:22.597Z,91.50
2017-12-26T16:16:50.893Z,91.70
2017-12-26T16:19:18.460Z,91.70
2017-12-26T16:21:45.979Z,91.80
2017-12-26T16:24:13.596Z,91.70
2017-12-26T16:26:41.109Z,91.60
2017-12-26T16:29:08.662Z,91.50
2017-12-26T16:31:36.178Z,91.60
2017-12-26T16:34:04.556Z,91.70
2017-12-26T16:36:32.929Z,91.70
2017-12-26T16:39:00.538Z,91.70
2017-12-26T16:41:28.019Z,91.70
2017-12-26T16:43:55.586Z,91.70
2017-12-26T16:46:23.086Z,91.50
2017-12-26T16:48:51.461Z,91.60
2017-12-26T16:51:18.985Z,91.40
2017-12-26T16:53:46.504Z,91.50
2017-12-26T16:56:14.788Z,91.50
2017-12-26T16:58:42.395Z,91.40
2017-12-26T17:01:10.647Z,91.30
2017-12-26T17:03:38.243Z,91.20
2017-12-26T17:06:06.555Z,91.00
2017-12-26T17:08:34.037Z,90.90
2017-12-26T17:11:01.568Z,90.70
2017-12-26T17:13:29.107Z,90.70
2017-12-26T17:15:56.770Z,90.70
2017-12-26T17:18:24.381Z,90.60
2017-12-26T17:20:51.868Z,90.70
2017-12-26T17:23:20.252Z,90.50
2017-12-26T17:25:48.608Z,89.20
2017-12-26T17:28:16.121Z,90.50
2017-12-26T17:30:43.778Z,90.60
2017-12-26T17:33:11.284Z,90.60
2017-12-26T17:35:39.382Z,90.50
2017-12-26T17:38:07.020Z,90.40
2017-12-26T17:40:34.516Z,90.50
2017-12-26T17:43:02.752Z,90.40
2017-12-26T17:45:30.268Z,90.40
2017-12-26T17:47:57.762Z,90.30
2017-12-26T17:50:25.356Z,90.30
2017-12-26T17:52:52.854Z,90.30
2017-12-26T17:55:20.344Z,90.30
2017-12-26T17:57:47.811Z,90.20
2017-12-26T18:00:16.071Z,90.20
2017-12-26T18:02:43.534Z,90.20
2017-12-26T18:05:11.040Z,90.20
2017-12-26T18:07:38.671Z,90.20
2017-12-26T18:10:06.910Z,90.40
2017-12-26T18:12:34.404Z,90.30
2017-12-26T18:15:02.652Z,90.30
2017-12-26T18:17:30.136Z,90.40
2017-12-26T18:19:58.412Z,90.30
2017-12-26T18:22:26.653Z,90.20
2017-12-26T18:24:54.150Z,90.20
2017-12-26T18:27:22.397Z,90.20
2017-12-26T18:29:49.879Z,90.10
2017-12-26T18:32:18.121Z,90.10
2017-12-26T18:34:45.633Z,90.00
2017-12-26T18:37:13.156Z,90.20
2017-12-26T18:39:40.629Z,90.10
2017-12-26T18:42:08.872Z,90.00
2017-12-26T18:44:36.362Z,90.00
2017-12-26T18:47:04.592Z,90.10
2017-12-26T18:49:32.123Z,90.10
2017-12-26T18:51:59.591Z,90.10
2017-12-26T18:54:27.068Z,90.10
2017-12-26T18:56:54.552Z,90.10
2017-12-26T18:59:22.065Z,90.10
2017-12-26T19:01:49.552Z,90.20
2017-12-26T19:04:17.023Z,90.20
2017-12-26T19:06:44.506Z,90.20
2017-12-26T19:09:11.994Z,90.20
2017-12-26T19:11:39.474Z,90.20
2017-12-26T19:14:06.961Z,90.50
2017-12-26T19:16:34.441Z,89.80
2017-12-26T19:19:01.929Z,89.70
2017-12-26T19:21:29.396Z,89.60
2017-12-26T19:23:56.864Z,89.60
2017-12-26T19:26:24.601Z,89.70
2017-12-26T19:28:52.086Z,89.80
2017-12-26T19:31:19.680Z,89.70
2017-12-26T19:33:47.987Z,90.10
2017-12-26T19:36:16.201Z,90.10
2017-12-26T19:38:44.942Z,90.00
2017-12-26T19:41:12.417Z,89.80
2017-12-26T19:43:39.890Z,89.50
2017-12-26T19:46:07.377Z,89.30
2017-12-26T19:48:34.850Z,89.40
2017-12-26T19:51:03.098Z,89.20
2017-12-26T19:53:30.560Z,89.20
2017-12-26T19:55:58.034Z,89.20
2017-12-26T19:58:25.516Z,89.00
2017-12-26T20:00:52.979Z,88.80
2017-12-26T20:03:20.458Z,88.50
2017-12-26T20:05:47.933Z,88.60
2017-12-26T20:08:15.384Z,88.50
2017-12-26T20:10:42.891Z,88.00
2017-12-26T20:13:11.165Z,87.70
2017-12-26T20:15:38.676Z,87.90
2017-12-26T20:18:06.874Z,88.30
2017-12-26T20:20:34.347Z,88.40
2017-12-26T20:23:02.604Z,88.30
2017-12-26T20:25:30.091Z,88.40
2017-12-26T20:27:57.573Z,88.50
2017-12-26T20:30:25.059Z,88.50
2017-12-26T20:32:52.518Z,88.90
2017-12-26T20:35:20.004Z,89.30
2017-12-26T20:37:48.270Z,90.00
2017-12-26T20:40:15.763Z,90.00
2017-12-26T20:42:43.234Z,90.00
2017-12-26T20:45:10.687Z,90.00
2017-12-26T20:47:38.646Z,90.10
2017-12-26T20:50:06.140Z,90.10
2017-12-26T20:52:33.628Z,90.00
2017-12-26T20:55:01.114Z,89.80
2017-12-26T20:57:28.604Z,90.00
2017-12-26T20:59:56.113Z,89.90
2017-12-26T21:02:24.363Z,89.40
2017-12-26T21:04:52.817Z,89.50
2017-12-26T21:07:20.302Z,89.50
2017-12-26T21:09:47.761Z,89.90
2017-12-26T21:12:15.261Z,90.00
2017-12-26T21:14:43.008Z,90.00
2017-12-26T21:17:11.868Z,90.30
2017-12-26T21:19:41.261Z,90.30
2017-12-26T21:22:09.141Z,90.40
2017-12-26T21:24:36.657Z,90.50
2017-12-26T21:27:04.187Z,90.50
2017-12-26T21:29:32.434Z,90.60
2017-12-26T21:31:59.942Z,90.40
2017-12-26T21:34:27.432Z,90.40
2017-12-26T21:36:55.037Z,90.40
2017-12-26T21:39:23.322Z,90.30
2017-12-26T21:41:51.547Z,90.40
2017-12-26T21:44:19.034Z,90.30
2017-12-26T21:46:46.533Z,90.40
2017-12-26T21:49:14.011Z,90.30
2017-12-26T21:51:41.499Z,90.60
2017-12-26T21:54:12.465Z,90.60
2017-12-26T21:56:40.696Z,90.40
2017-12-26T21:59:08.187Z,90.40
2017-12-26T22:01:36.465Z,90.30
2017-12-26T22:04:04.714Z,90.30
2017-12-26T22:06:32.184Z,90.20
2017-12-26T22:08:59.667Z,90.10
2017-12-26T22:11:27.132Z,90.00
2017-12-26T22:13:54.616Z,89.50
2017-12-26T22:16:22.103Z,89.10
2017-12-26T22:18:49.625Z,88.80
2017-12-26T22:21:17.870Z,88.50
2017-12-26T22:23:45.370Z,88.50
2017-12-26T22:26:12.830Z,88.40
2017-12-26T22:28:40.305Z,88.40
2017-12-26T22:31:07.886Z,88.20
2017-12-26T22:33:35.406Z,88.20
2017-12-26T22:36:02.879Z,88.00
2017-12-26T22:38:30.374Z,88.00
2017-12-26T22:40:57.859Z,87.90
2017-12-26T22:43:26.109Z,88.10
2017-12-26T22:45:54.337Z,88.00
2017-12-26T22:48:22.070Z,87.90
2017-12-26T22:50:49.992Z,87.60
2017-12-26T22:53:17.455Z,87.60
2017-12-26T22:55:45.688Z,87.70
2017-12-26T22:58:13.922Z,87.80
2017-12-26T23:00:41.483Z,87.70
2017-12-26T23:03:09.015Z,87.50
2017-12-26T23:05:36.490Z,87.50
2017-12-26T23:08:04.712Z,87.90
2017-12-26T23:10:32.226Z,87.90
2017-12-26T23:13:00.473Z,87.40
2017-12-26T23:15:33.501Z,87.30
2017-12-26T23:18:07.432Z,86.90
2017-12-26T23:20:40.607Z,86.80
2017-12-26T23:23:13.680Z,87.00
2017-12-26T23:25:46.771Z,86.80
2017-12-26T23:28:19.950Z,86.80
2017-12-26T23:30:53.101Z,86.30
2017-12-26T23:33:26.310Z,86.40
2017-12-26T23:35:59.505Z,86.30
2017-12-26T23:38:32.638Z,86.50
2017-12-26T23:41:05.818Z,86.30
2017-12-26T23:43:39.698Z,86.20
2017-12-26T23:46:12.867Z,86.20
2017-12-26T23:51:46.679Z,85.40
2017-12-26T23:54:19.920Z,85.00
2017-12-26T23:56:53.098Z,85.00
2017-12-26T23:59:26.277Z,85.40
